sensor_id;sensor_type;location;lat;lon;timestamp;temperature;humidity
70826;SHT31;58446;41.490;22.098;2023-04-08T00:00:35;10.24;54.54
70826;SHT31;58446;41.490;22.098;2023-04-08T00:03:02;10.41;54.48
70826;SHT31;58446;41.490;22.098;2023-04-08T00:05:27;10.33;54.67
70826;SHT31;58446;41.490;22.098;2023-04-08T00:07:53;10.30;54.56
70826;SHT31;58446;41.490;22.098;2023-04-08T00:10:19;10.03;55.44
70826;SHT31;58446;41.490;22.098;2023-04-08T00:12:47;9.90;55.88
70826;SHT31;58446;41.490;22.098;2023-04-08T00:15:12;9.74;56.18
70826;SHT31;58446;41.490;22.098;2023-04-08T00:17:38;9.81;55.66
70826;SHT31;58446;41.490;22.098;2023-04-08T00:20:04;10.00;55.06
70826;SHT31;58446;41.490;22.098;2023-04-08T00:22:30;9.99;54.83
70826;SHT31;58446;41.490;22.098;2023-04-08T00:24:57;9.89;55.11
70826;SHT31;58446;41.490;22.098;2023-04-08T00:27:22;9.95;54.91
70826;SHT31;58446;41.490;22.098;2023-04-08T00:30:08;9.92;55.29
70826;SHT31;58446;41.490;22.098;2023-04-08T00:32:34;9.68;56.81
70826;SHT31;58446;41.490;22.098;2023-04-08T00:35:00;9.95;55.60
70826;SHT31;58446;41.490;22.098;2023-04-08T00:37:26;10.10;55.23
70826;SHT31;58446;41.490;22.098;2023-04-08T00:39:52;9.92;55.64
70826;SHT31;58446;41.490;22.098;2023-04-08T00:42:18;10.05;55.24
70826;SHT31;58446;41.490;22.098;2023-04-08T00:44:46;10.26;54.59
70826;SHT31;58446;41.490;22.098;2023-04-08T00:47:13;9.90;56.04
70826;SHT31;58446;41.490;22.098;2023-04-08T00:49:40;9.74;56.86
70826;SHT31;58446;41.490;22.098;2023-04-08T00:52:06;9.85;56.20
70826;SHT31;58446;41.490;22.098;2023-04-08T00:54:32;9.95;56.33
70826;SHT31;58446;41.490;22.098;2023-04-08T00:56:57;10.06;55.86
70826;SHT31;58446;41.490;22.098;2023-04-08T00:59:28;10.02;55.70
70826;SHT31;58446;41.490;22.098;2023-04-08T01:02:02;10.21;55.03
70826;SHT31;58446;41.490;22.098;2023-04-08T01:04:32;10.12;56.35
70826;SHT31;58446;41.490;22.098;2023-04-08T01:07:14;9.93;55.96
70826;SHT31;58446;41.490;22.098;2023-04-08T01:09:54;10.02;55.81
70826;SHT31;58446;41.490;22.098;2023-04-08T01:12:24;9.99;56.03
70826;SHT31;58446;41.490;22.098;2023-04-08T01:15:00;9.97;55.94
70826;SHT31;58446;41.490;22.098;2023-04-08T01:17:28;9.99;56.70
70826;SHT31;58446;41.490;22.098;2023-04-08T01:19:57;9.90;56.55
70826;SHT31;58446;41.490;22.098;2023-04-08T01:25:17;9.76;57.22
70826;SHT31;58446;41.490;22.098;2023-04-08T01:27:44;9.83;56.90
70826;SHT31;58446;41.490;22.098;2023-04-08T01:30:13;9.76;57.63
70826;SHT31;58446;41.490;22.098;2023-04-08T01:32:39;9.87;56.83
70826;SHT31;58446;41.490;22.098;2023-04-08T01:35:07;9.90;57.14
70826;SHT31;58446;41.490;22.098;2023-04-08T01:37:35;9.74;57.71
70826;SHT31;58446;41.490;22.098;2023-04-08T01:40:02;9.87;57.22
70826;SHT31;58446;41.490;22.098;2023-04-08T01:42:29;9.78;57.85
70826;SHT31;58446;41.490;22.098;2023-04-08T01:44:56;9.82;58.03
70826;SHT31;58446;41.490;22.098;2023-04-08T01:47:24;9.69;58.69
70826;SHT31;58446;41.490;22.098;2023-04-08T01:49:51;9.76;57.96
70826;SHT31;58446;41.490;22.098;2023-04-08T01:52:19;9.87;57.26
70826;SHT31;58446;41.490;22.098;2023-04-08T01:54:45;10.09;56.82
70826;SHT31;58446;41.490;22.098;2023-04-08T01:57:18;10.23;56.41
70826;SHT31;58446;41.490;22.098;2023-04-08T01:59:47;10.20;56.65
70826;SHT31;58446;41.490;22.098;2023-04-08T02:02:14;9.99;58.97
70826;SHT31;58446;41.490;22.098;2023-04-08T02:04:40;9.96;57.85
70826;SHT31;58446;41.490;22.098;2023-04-08T02:07:06;9.92;57.93
70826;SHT31;58446;41.490;22.098;2023-04-08T02:09:33;9.74;59.36
70826;SHT31;58446;41.490;22.098;2023-04-08T02:11:59;9.59;59.42
70826;SHT31;58446;41.490;22.098;2023-04-08T02:14:26;9.66;58.65
70826;SHT31;58446;41.490;22.098;2023-04-08T02:17:00;9.52;59.24
70826;SHT31;58446;41.490;22.098;2023-04-08T02:19:36;9.44;59.59
70826;SHT31;58446;41.490;22.098;2023-04-08T02:22:11;9.61;58.79
70826;SHT31;58446;41.490;22.098;2023-04-08T02:24:37;9.56;58.73
70826;SHT31;58446;41.490;22.098;2023-04-08T02:27:06;9.69;58.32
70826;SHT31;58446;41.490;22.098;2023-04-08T02:29:35;9.68;58.48
70826;SHT31;58446;41.490;22.098;2023-04-08T02:32:03;9.39;59.74
70826;SHT31;58446;41.490;22.098;2023-04-08T02:34:29;8.94;60.65
70826;SHT31;58446;41.490;22.098;2023-04-08T02:36:56;9.46;58.98
70826;SHT31;58446;41.490;22.098;2023-04-08T02:39:32;9.71;58.23
70826;SHT31;58446;41.490;22.098;2023-04-08T02:41:58;9.44;59.57
70826;SHT31;58446;41.490;22.098;2023-04-08T02:44:24;9.68;58.42
70826;SHT31;58446;41.490;22.098;2023-04-08T02:46:49;9.82;57.95
70826;SHT31;58446;41.490;22.098;2023-04-08T02:49:15;9.79;58.10
70826;SHT31;58446;41.490;22.098;2023-04-08T02:51:41;9.79;58.20
70826;SHT31;58446;41.490;22.098;2023-04-08T02:54:06;9.72;58.36
70826;SHT31;58446;41.490;22.098;2023-04-08T02:56:32;9.55;59.51
70826;SHT31;58446;41.490;22.098;2023-04-08T02:58:58;9.75;58.28
70826;SHT31;58446;41.490;22.098;2023-04-08T03:01:23;9.63;58.57
70826;SHT31;58446;41.490;22.098;2023-04-08T03:03:49;9.55;58.54
70826;SHT31;58446;41.490;22.098;2023-04-08T03:06:15;9.25;58.87
70826;SHT31;58446;41.490;22.098;2023-04-08T03:08:41;9.23;59.46
70826;SHT31;58446;41.490;22.098;2023-04-08T03:11:06;8.91;59.98
70826;SHT31;58446;41.490;22.098;2023-04-08T03:13:32;9.08;59.65
70826;SHT31;58446;41.490;22.098;2023-04-08T03:15:58;9.08;59.22
70826;SHT31;58446;41.490;22.098;2023-04-08T03:18:24;9.23;58.80
70826;SHT31;58446;41.490;22.098;2023-04-08T03:20:50;9.21;58.63
70826;SHT31;58446;41.490;22.098;2023-04-08T03:23:16;8.94;59.23
70826;SHT31;58446;41.490;22.098;2023-04-08T03:25:41;9.20;58.89
70826;SHT31;58446;41.490;22.098;2023-04-08T03:28:07;9.27;58.40
70826;SHT31;58446;41.490;22.098;2023-04-08T03:30:33;8.88;59.61
70826;SHT31;58446;41.490;22.098;2023-04-08T03:32:58;8.76;59.82
70826;SHT31;58446;41.490;22.098;2023-04-08T03:35:24;8.39;61.52
70826;SHT31;58446;41.490;22.098;2023-04-08T03:37:50;8.44;61.17
70826;SHT31;58446;41.490;22.098;2023-04-08T03:40:15;8.70;60.19
70826;SHT31;58446;41.490;22.098;2023-04-08T03:42:41;8.79;60.20
70826;SHT31;58446;41.490;22.098;2023-04-08T03:45:07;9.01;59.44
70826;SHT31;58446;41.490;22.098;2023-04-08T03:47:33;9.03;59.18
70826;SHT31;58446;41.490;22.098;2023-04-08T03:49:59;8.90;59.91
70826;SHT31;58446;41.490;22.098;2023-04-08T03:52:24;8.84;59.97
70826;SHT31;58446;41.490;22.098;2023-04-08T03:54:50;8.87;60.03
70826;SHT31;58446;41.490;22.098;2023-04-08T03:57:15;8.86;60.00
70826;SHT31;58446;41.490;22.098;2023-04-08T03:59:41;8.80;60.38
70826;SHT31;58446;41.490;22.098;2023-04-08T04:02:07;8.81;60.26
70826;SHT31;58446;41.490;22.098;2023-04-08T04:04:33;8.77;60.35
70826;SHT31;58446;41.490;22.098;2023-04-08T04:07:00;8.77;60.22
70826;SHT31;58446;41.490;22.098;2023-04-08T04:09:25;8.83;60.14
70826;SHT31;58446;41.490;22.098;2023-04-08T04:11:51;8.88;60.27
70826;SHT31;58446;41.490;22.098;2023-04-08T04:14:17;8.91;59.99
70826;SHT31;58446;41.490;22.098;2023-04-08T04:16:42;8.62;60.76
70826;SHT31;58446;41.490;22.098;2023-04-08T04:19:08;8.44;61.67
70826;SHT31;58446;41.490;22.098;2023-04-08T04:21:33;8.14;62.50
70826;SHT31;58446;41.490;22.098;2023-04-08T04:23:59;8.16;63.02
70826;SHT31;58446;41.490;22.098;2023-04-08T04:26:25;8.01;63.02
70826;SHT31;58446;41.490;22.098;2023-04-08T04:28:51;7.70;64.46
70826;SHT31;58446;41.490;22.098;2023-04-08T04:31:21;7.63;65.09
70826;SHT31;58446;41.490;22.098;2023-04-08T04:33:48;7.74;64.42
70826;SHT31;58446;41.490;22.098;2023-04-08T04:36:14;7.67;64.17
70826;SHT31;58446;41.490;22.098;2023-04-08T04:38:40;7.85;63.63
70826;SHT31;58446;41.490;22.098;2023-04-08T04:41:07;7.91;64.03
70826;SHT31;58446;41.490;22.098;2023-04-08T04:43:33;8.29;63.21
70826;SHT31;58446;41.490;22.098;2023-04-08T04:45:58;8.26;62.79
70826;SHT31;58446;41.490;22.098;2023-04-08T04:48:25;8.88;61.14
70826;SHT31;58446;41.490;22.098;2023-04-08T04:50:55;9.69;58.90
70826;SHT31;58446;41.490;22.098;2023-04-08T04:53:21;9.96;57.32
70826;SHT31;58446;41.490;22.098;2023-04-08T04:55:46;10.29;56.34
70826;SHT31;58446;41.490;22.098;2023-04-08T04:58:12;9.86;58.00
70826;SHT31;58446;41.490;22.098;2023-04-08T05:00:38;9.87;57.40
70826;SHT31;58446;41.490;22.098;2023-04-08T05:03:03;9.90;57.27
70826;SHT31;58446;41.490;22.098;2023-04-08T05:05:29;10.41;56.56
70826;SHT31;58446;41.490;22.098;2023-04-08T05:07:55;10.48;56.06
70826;SHT31;58446;41.490;22.098;2023-04-08T05:10:21;10.89;56.30
70826;SHT31;58446;41.490;22.098;2023-04-08T05:12:47;10.82;56.12
70826;SHT31;58446;41.490;22.098;2023-04-08T05:15:12;10.77;55.79
70826;SHT31;58446;41.490;22.098;2023-04-08T05:17:38;10.64;56.65
70826;SHT31;58446;41.490;22.098;2023-04-08T05:20:04;10.67;55.56
70826;SHT31;58446;41.490;22.098;2023-04-08T05:22:31;10.84;55.79
70826;SHT31;58446;41.490;22.098;2023-04-08T05:24:56;10.69;56.08
70826;SHT31;58446;41.490;22.098;2023-04-08T05:27:22;10.78;55.39
70826;SHT31;58446;41.490;22.098;2023-04-08T05:29:48;10.84;55.34
70826;SHT31;58446;41.490;22.098;2023-04-08T05:32:13;11.01;54.59
70826;SHT31;58446;41.490;22.098;2023-04-08T05:34:41;11.08;54.32
70826;SHT31;58446;41.490;22.098;2023-04-08T05:37:07;11.18;54.10
70826;SHT31;58446;41.490;22.098;2023-04-08T05:39:33;10.74;55.01
70826;SHT31;58446;41.490;22.098;2023-04-08T05:41:58;10.58;55.62
70826;SHT31;58446;41.490;22.098;2023-04-08T05:44:24;10.95;55.23
70826;SHT31;58446;41.490;22.098;2023-04-08T05:46:50;11.11;55.11
70826;SHT31;58446;41.490;22.098;2023-04-08T05:49:15;11.12;54.78
70826;SHT31;58446;41.490;22.098;2023-04-08T05:51:42;11.32;55.22
70826;SHT31;58446;41.490;22.098;2023-04-08T05:54:08;11.05;55.71
70826;SHT31;58446;41.490;22.098;2023-04-08T05:56:33;11.19;54.95
70826;SHT31;58446;41.490;22.098;2023-04-08T05:58:59;11.15;54.43
70826;SHT31;58446;41.490;22.098;2023-04-08T06:01:25;11.30;54.75
70826;SHT31;58446;41.490;22.098;2023-04-08T06:03:51;11.55;54.10
70826;SHT31;58446;41.490;22.098;2023-04-08T06:06:17;11.88;52.97
70826;SHT31;58446;41.490;22.098;2023-04-08T06:08:43;11.74;53.16
70826;SHT31;58446;41.490;22.098;2023-04-08T06:11:08;11.91;52.33
70826;SHT31;58446;41.490;22.098;2023-04-08T06:13:34;11.91;53.34
70826;SHT31;58446;41.490;22.098;2023-04-08T06:16:14;12.31;52.22
70826;SHT31;58446;41.490;22.098;2023-04-08T06:18:40;12.34;51.73
70826;SHT31;58446;41.490;22.098;2023-04-08T06:21:06;12.32;51.59
70826;SHT31;58446;41.490;22.098;2023-04-08T06:23:31;12.41;51.15
70826;SHT31;58446;41.490;22.098;2023-04-08T06:25:57;12.76;50.75
70826;SHT31;58446;41.490;22.098;2023-04-08T06:28:23;12.72;49.58
70826;SHT31;58446;41.490;22.098;2023-04-08T06:30:49;12.79;50.56
70826;SHT31;58446;41.490;22.098;2023-04-08T06:33:14;12.86;49.92
70826;SHT31;58446;41.490;22.098;2023-04-08T06:35:40;12.97;49.80
70826;SHT31;58446;41.490;22.098;2023-04-08T06:38:06;13.27;48.64
70826;SHT31;58446;41.490;22.098;2023-04-08T06:40:31;13.51;48.37
70826;SHT31;58446;41.490;22.098;2023-04-08T06:42:57;13.55;47.19
70826;SHT31;58446;41.490;22.098;2023-04-08T06:45:23;13.67;47.14
70826;SHT31;58446;41.490;22.098;2023-04-08T06:47:48;13.69;46.94
70826;SHT31;58446;41.490;22.098;2023-04-08T06:50:14;13.65;47.93
70826;SHT31;58446;41.490;22.098;2023-04-08T06:52:40;13.38;48.38
70826;SHT31;58446;41.490;22.098;2023-04-08T06:55:06;13.04;48.75
70826;SHT31;58446;41.490;22.098;2023-04-08T06:57:32;12.89;49.67
70826;SHT31;58446;41.490;22.098;2023-04-08T06:59:57;12.90;50.66
70826;SHT31;58446;41.490;22.098;2023-04-08T07:02:24;12.87;50.09
70826;SHT31;58446;41.490;22.098;2023-04-08T07:04:50;12.97;51.31
70826;SHT31;58446;41.490;22.098;2023-04-08T07:07:16;13.14;50.69
70826;SHT31;58446;41.490;22.098;2023-04-08T07:09:41;13.16;51.15
70826;SHT31;58446;41.490;22.098;2023-04-08T07:12:10;13.28;50.97
70826;SHT31;58446;41.490;22.098;2023-04-08T07:14:36;13.33;50.29
70826;SHT31;58446;41.490;22.098;2023-04-08T07:17:02;13.26;51.09
70826;SHT31;58446;41.490;22.098;2023-04-08T07:19:27;13.28;51.87
70826;SHT31;58446;41.490;22.098;2023-04-08T07:21:53;13.34;51.50
70826;SHT31;58446;41.490;22.098;2023-04-08T07:24:19;13.27;50.88
70826;SHT31;58446;41.490;22.098;2023-04-08T07:26:44;13.41;49.63
70826;SHT31;58446;41.490;22.098;2023-04-08T07:29:10;13.47;50.96
70826;SHT31;58446;41.490;22.098;2023-04-08T07:31:35;13.64;50.73
70826;SHT31;58446;41.490;22.098;2023-04-08T07:34:01;13.85;50.07
70826;SHT31;58446;41.490;22.098;2023-04-08T07:36:27;14.01;50.16
70826;SHT31;58446;41.490;22.098;2023-04-08T07:38:53;14.04;50.27
70826;SHT31;58446;41.490;22.098;2023-04-08T07:41:18;14.19;49.90
70826;SHT31;58446;41.490;22.098;2023-04-08T07:43:45;13.86;49.18
70826;SHT31;58446;41.490;22.098;2023-04-08T07:46:11;13.74;50.68
70826;SHT31;58446;41.490;22.098;2023-04-08T07:48:37;13.64;50.75
70826;SHT31;58446;41.490;22.098;2023-04-08T07:51:07;13.77;51.45
70826;SHT31;58446;41.490;22.098;2023-04-08T07:53:33;13.81;50.82
70826;SHT31;58446;41.490;22.098;2023-04-08T07:56:00;13.88;51.37
70826;SHT31;58446;41.490;22.098;2023-04-08T07:58:26;13.88;50.86
70826;SHT31;58446;41.490;22.098;2023-04-08T08:00:52;13.61;51.30
70826;SHT31;58446;41.490;22.098;2023-04-08T08:03:17;13.77;51.95
70826;SHT31;58446;41.490;22.098;2023-04-08T08:05:43;13.88;50.73
70826;SHT31;58446;41.490;22.098;2023-04-08T08:08:09;13.50;51.92
70826;SHT31;58446;41.490;22.098;2023-04-08T08:10:38;13.65;51.67
70826;SHT31;58446;41.490;22.098;2023-04-08T08:13:04;13.51;52.75
70826;SHT31;58446;41.490;22.098;2023-04-08T08:15:31;13.54;52.91
70826;SHT31;58446;41.490;22.098;2023-04-08T08:17:56;13.55;52.14
70826;SHT31;58446;41.490;22.098;2023-04-08T08:20:22;13.17;54.17
70826;SHT31;58446;41.490;22.098;2023-04-08T08:22:47;13.04;54.48
70826;SHT31;58446;41.490;22.098;2023-04-08T08:25:13;13.21;55.04
70826;SHT31;58446;41.490;22.098;2023-04-08T08:27:39;13.23;54.88
70826;SHT31;58446;41.490;22.098;2023-04-08T08:30:07;13.33;55.43
70826;SHT31;58446;41.490;22.098;2023-04-08T08:32:33;13.18;54.90
70826;SHT31;58446;41.490;22.098;2023-04-08T08:35:00;13.30;54.66
70826;SHT31;58446;41.490;22.098;2023-04-08T08:37:26;13.50;54.25
70826;SHT31;58446;41.490;22.098;2023-04-08T08:39:51;13.46;54.26
70826;SHT31;58446;41.490;22.098;2023-04-08T08:42:21;13.64;55.02
70826;SHT31;58446;41.490;22.098;2023-04-08T08:44:47;13.79;54.09
70826;SHT31;58446;41.490;22.098;2023-04-08T08:47:14;13.90;54.41
70826;SHT31;58446;41.490;22.098;2023-04-08T08:49:39;13.77;54.83
70826;SHT31;58446;41.490;22.098;2023-04-08T08:52:06;13.86;55.29
70826;SHT31;58446;41.490;22.098;2023-04-08T08:54:31;14.12;54.50
70826;SHT31;58446;41.490;22.098;2023-04-08T08:56:57;14.48;53.87
70826;SHT31;58446;41.490;22.098;2023-04-08T08:59:23;14.70;54.90
70826;SHT31;58446;41.490;22.098;2023-04-08T09:01:49;14.76;53.62
70826;SHT31;58446;41.490;22.098;2023-04-08T09:04:16;14.97;53.63
70826;SHT31;58446;41.490;22.098;2023-04-08T09:06:48;14.88;53.06
70826;SHT31;58446;41.490;22.098;2023-04-08T09:09:15;14.99;52.79
70826;SHT31;58446;41.490;22.098;2023-04-08T09:11:46;14.97;52.04
70826;SHT31;58446;41.490;22.098;2023-04-08T09:14:22;15.18;52.76
70826;SHT31;58446;41.490;22.098;2023-04-08T09:16:49;14.94;51.86
70826;SHT31;58446;41.490;22.098;2023-04-08T09:19:15;14.91;50.96
70826;SHT31;58446;41.490;22.098;2023-04-08T09:21:41;15.04;50.58
70826;SHT31;58446;41.490;22.098;2023-04-08T09:24:07;15.28;49.35
70826;SHT31;58446;41.490;22.098;2023-04-08T09:26:35;15.38;51.10
70826;SHT31;58446;41.490;22.098;2023-04-08T09:29:08;15.35;48.91
70826;SHT31;58446;41.490;22.098;2023-04-08T09:31:38;15.50;48.82
70826;SHT31;58446;41.490;22.098;2023-04-08T09:34:12;15.59;48.00
70826;SHT31;58446;41.490;22.098;2023-04-08T09:36:38;15.62;48.97
70826;SHT31;58446;41.490;22.098;2023-04-08T09:39:05;15.79;48.41
70826;SHT31;58446;41.490;22.098;2023-04-08T09:41:34;15.85;47.82
70826;SHT31;58446;41.490;22.098;2023-04-08T09:44:03;15.76;48.11
70826;SHT31;58446;41.490;22.098;2023-04-08T09:49:43;15.86;48.74
70826;SHT31;58446;41.490;22.098;2023-04-08T09:52:16;16.10;47.83
70826;SHT31;58446;41.490;22.098;2023-04-08T09:54:52;16.18;46.56
70826;SHT31;58446;41.490;22.098;2023-04-08T10:00:23;15.80;46.92
70826;SHT31;58446;41.490;22.098;2023-04-08T10:05:29;15.46;47.37
70826;SHT31;58446;41.490;22.098;2023-04-08T10:07:55;15.27;48.01
70826;SHT31;58446;41.490;22.098;2023-04-08T10:10:22;15.22;48.67
70826;SHT31;58446;41.490;22.098;2023-04-08T10:12:49;15.36;48.02
70826;SHT31;58446;41.490;22.098;2023-04-08T10:17:52;15.79;47.17
70826;SHT31;58446;41.490;22.098;2023-04-08T10:23:06;15.89;47.40
70826;SHT31;58446;41.490;22.098;2023-04-08T10:25:33;15.73;48.05
70826;SHT31;58446;41.490;22.098;2023-04-08T10:33:14;15.67;48.95
70826;SHT31;58446;41.490;22.098;2023-04-08T10:35:50;15.86;48.66
70826;SHT31;58446;41.490;22.098;2023-04-08T10:38:18;15.80;48.22
70826;SHT31;58446;41.490;22.098;2023-04-08T10:40:44;15.71;47.99
70826;SHT31;58446;41.490;22.098;2023-04-08T10:43:11;15.70;48.54
70826;SHT31;58446;41.490;22.098;2023-04-08T10:45:38;15.80;48.78
70826;SHT31;58446;41.490;22.098;2023-04-08T10:48:11;15.55;50.30
70826;SHT31;58446;41.490;22.098;2023-04-08T10:50:37;15.58;50.71
70826;SHT31;58446;41.490;22.098;2023-04-08T10:53:03;15.63;51.65
70826;SHT31;58446;41.490;22.098;2023-04-08T10:55:29;15.71;50.32
70826;SHT31;58446;41.490;22.098;2023-04-08T10:58:07;15.71;49.88
70826;SHT31;58446;41.490;22.098;2023-04-08T11:00:37;15.29;49.55
70826;SHT31;58446;41.490;22.098;2023-04-08T11:03:05;15.27;50.76
70826;SHT31;58446;41.490;22.098;2023-04-08T11:05:31;15.42;50.97
70826;SHT31;58446;41.490;22.098;2023-04-08T11:07:58;15.66;49.73
70826;SHT31;58446;41.490;22.098;2023-04-08T11:10:25;15.63;50.32
70826;SHT31;58446;41.490;22.098;2023-04-08T11:12:53;15.80;50.31
70826;SHT31;58446;41.490;22.098;2023-04-08T11:15:18;15.77;49.83
70826;SHT31;58446;41.490;22.098;2023-04-08T11:17:46;15.97;50.58
70826;SHT31;58446;41.490;22.098;2023-04-08T11:20:12;15.96;49.92
70826;SHT31;58446;41.490;22.098;2023-04-08T11:22:38;15.83;50.74
70826;SHT31;58446;41.490;22.098;2023-04-08T11:25:06;15.86;50.73
70826;SHT31;58446;41.490;22.098;2023-04-08T11:27:33;15.94;50.82
70826;SHT31;58446;41.490;22.098;2023-04-08T11:30:00;15.80;48.92
70826;SHT31;58446;41.490;22.098;2023-04-08T11:32:27;15.62;49.18
70826;SHT31;58446;41.490;22.098;2023-04-08T11:34:53;15.83;49.93
70826;SHT31;58446;41.490;22.098;2023-04-08T11:37:19;15.77;49.17
70826;SHT31;58446;41.490;22.098;2023-04-08T11:39:45;15.77;49.45
70826;SHT31;58446;41.490;22.098;2023-04-08T11:42:31;16.06;49.90
70826;SHT31;58446;41.490;22.098;2023-04-08T11:44:57;16.07;48.17
70826;SHT31;58446;41.490;22.098;2023-04-08T11:47:30;16.14;49.09
70826;SHT31;58446;41.490;22.098;2023-04-08T11:49:56;16.20;48.86
70826;SHT31;58446;41.490;22.098;2023-04-08T11:52:22;16.28;48.70
70826;SHT31;58446;41.490;22.098;2023-04-08T11:55:04;16.14;49.95
70826;SHT31;58446;41.490;22.098;2023-04-08T11:57:30;16.06;49.34
70826;SHT31;58446;41.490;22.098;2023-04-08T11:59:57;15.91;49.02
70826;SHT31;58446;41.490;22.098;2023-04-08T12:02:23;15.45;50.25
70826;SHT31;58446;41.490;22.098;2023-04-08T12:04:48;15.48;51.35
70826;SHT31;58446;41.490;22.098;2023-04-08T12:07:14;15.32;50.89
70826;SHT31;58446;41.490;22.098;2023-04-08T12:09:39;15.22;51.69
70826;SHT31;58446;41.490;22.098;2023-04-08T12:12:05;15.28;51.68
70826;SHT31;58446;41.490;22.098;2023-04-08T12:14:31;15.25;52.52
70826;SHT31;58446;41.490;22.098;2023-04-08T12:16:57;15.27;52.30
70826;SHT31;58446;41.490;22.098;2023-04-08T12:19:23;15.42;51.67
70826;SHT31;58446;41.490;22.098;2023-04-08T12:21:48;15.60;51.95
70826;SHT31;58446;41.490;22.098;2023-04-08T12:24:14;15.77;51.60
70826;SHT31;58446;41.490;22.098;2023-04-08T12:26:40;15.97;51.77
70826;SHT31;58446;41.490;22.098;2023-04-08T12:29:05;16.10;50.82
70826;SHT31;58446;41.490;22.098;2023-04-08T12:31:33;15.98;50.05
70826;SHT31;58446;41.490;22.098;2023-04-08T12:33:59;15.79;51.08
70826;SHT31;58446;41.490;22.098;2023-04-08T12:36:24;15.65;50.96
70826;SHT31;58446;41.490;22.098;2023-04-08T12:38:51;15.65;51.30
70826;SHT31;58446;41.490;22.098;2023-04-08T12:41:17;15.53;51.11
70826;SHT31;58446;41.490;22.098;2023-04-08T12:43:42;15.39;50.93
70826;SHT31;58446;41.490;22.098;2023-04-08T12:46:08;15.39;51.55
70826;SHT31;58446;41.490;22.098;2023-04-08T12:48:33;15.45;51.43
70826;SHT31;58446;41.490;22.098;2023-04-08T12:50:59;15.24;50.76
70826;SHT31;58446;41.490;22.098;2023-04-08T12:53:25;15.15;51.13
70826;SHT31;58446;41.490;22.098;2023-04-08T12:55:51;15.15;51.83
70826;SHT31;58446;41.490;22.098;2023-04-08T12:58:21;15.15;51.68
70826;SHT31;58446;41.490;22.098;2023-04-08T13:00:47;15.27;51.73
70826;SHT31;58446;41.490;22.098;2023-04-08T13:03:14;15.28;51.07
70826;SHT31;58446;41.490;22.098;2023-04-08T13:05:41;15.24;51.91
70826;SHT31;58446;41.490;22.098;2023-04-08T13:08:07;15.29;51.48
70826;SHT31;58446;41.490;22.098;2023-04-08T13:10:32;15.58;52.11
70826;SHT31;58446;41.490;22.098;2023-04-08T13:12:58;15.66;51.08
70826;SHT31;58446;41.490;22.098;2023-04-08T13:15:23;15.82;51.72
70826;SHT31;58446;41.490;22.098;2023-04-08T13:17:49;16.00;50.42
70826;SHT31;58446;41.490;22.098;2023-04-08T13:20:15;16.04;49.85
70826;SHT31;58446;41.490;22.098;2023-04-08T13:22:41;16.08;50.99
70826;SHT31;58446;41.490;22.098;2023-04-08T13:25:07;15.96;49.48
70826;SHT31;58446;41.490;22.098;2023-04-08T13:27:32;15.94;49.37
70826;SHT31;58446;41.490;22.098;2023-04-08T13:29:58;15.83;49.76
70826;SHT31;58446;41.490;22.098;2023-04-08T13:32:23;15.90;50.66
70826;SHT31;58446;41.490;22.098;2023-04-08T13:34:49;15.91;49.95
70826;SHT31;58446;41.490;22.098;2023-04-08T13:37:15;15.85;49.15
70826;SHT31;58446;41.490;22.098;2023-04-08T13:39:41;15.71;48.95
70826;SHT31;58446;41.490;22.098;2023-04-08T13:42:06;15.66;49.27
70826;SHT31;58446;41.490;22.098;2023-04-08T13:44:32;15.80;49.94
70826;SHT31;58446;41.490;22.098;2023-04-08T13:46:58;15.76;49.89
70826;SHT31;58446;41.490;22.098;2023-04-08T13:49:24;15.59;50.19
70826;SHT31;58446;41.490;22.098;2023-04-08T13:51:50;15.70;50.65
70826;SHT31;58446;41.490;22.098;2023-04-08T13:54:16;15.70;50.42
70826;SHT31;58446;41.490;22.098;2023-04-08T13:56:41;15.85;50.83
70826;SHT31;58446;41.490;22.098;2023-04-08T13:59:07;15.79;51.12
70826;SHT31;58446;41.490;22.098;2023-04-08T14:01:34;15.58;51.05
70826;SHT31;58446;41.490;22.098;2023-04-08T14:04:00;15.40;51.98
70826;SHT31;58446;41.490;22.098;2023-04-08T14:06:26;15.35;51.14
70826;SHT31;58446;41.490;22.098;2023-04-08T14:08:51;15.08;51.20
70826;SHT31;58446;41.490;22.098;2023-04-08T14:11:17;14.92;51.93
70826;SHT31;58446;41.490;22.098;2023-04-08T14:13:42;14.85;51.79
70826;SHT31;58446;41.490;22.098;2023-04-08T14:16:08;14.84;52.61
70826;SHT31;58446;41.490;22.098;2023-04-08T14:18:34;14.66;52.15
70826;SHT31;58446;41.490;22.098;2023-04-08T14:21:00;14.56;52.44
70826;SHT31;58446;41.490;22.098;2023-04-08T14:23:27;14.48;52.45
70826;SHT31;58446;41.490;22.098;2023-04-08T14:25:52;14.48;52.66
70826;SHT31;58446;41.490;22.098;2023-04-08T14:28:18;14.44;53.59
70826;SHT31;58446;41.490;22.098;2023-04-08T14:30:43;14.47;53.08
70826;SHT31;58446;41.490;22.098;2023-04-08T14:33:09;14.39;53.04
70826;SHT31;58446;41.490;22.098;2023-04-08T14:35:35;14.33;53.61
70826;SHT31;58446;41.490;22.098;2023-04-08T14:38:01;14.34;53.88
70826;SHT31;58446;41.490;22.098;2023-04-08T14:40:26;14.41;53.69
70826;SHT31;58446;41.490;22.098;2023-04-08T14:42:52;14.44;53.14
70826;SHT31;58446;41.490;22.098;2023-04-08T14:45:18;14.39;53.15
70826;SHT31;58446;41.490;22.098;2023-04-08T14:47:43;14.39;53.21
70826;SHT31;58446;41.490;22.098;2023-04-08T14:50:10;14.36;53.09
70826;SHT31;58446;41.490;22.098;2023-04-08T14:52:35;14.26;53.10
70826;SHT31;58446;41.490;22.098;2023-04-08T14:55:01;14.33;53.54
70826;SHT31;58446;41.490;22.098;2023-04-08T14:57:27;14.43;53.34
70826;SHT31;58446;41.490;22.098;2023-04-08T14:59:53;14.57;53.44
70826;SHT31;58446;41.490;22.098;2023-04-08T15:02:18;14.61;53.13
70826;SHT31;58446;41.490;22.098;2023-04-08T15:04:44;14.59;53.35
70826;SHT31;58446;41.490;22.098;2023-04-08T15:07:09;14.47;53.36
70826;SHT31;58446;41.490;22.098;2023-04-08T15:09:35;14.43;53.61
70826;SHT31;58446;41.490;22.098;2023-04-08T15:12:01;14.34;54.22
70826;SHT31;58446;41.490;22.098;2023-04-08T15:14:27;14.27;54.88
70826;SHT31;58446;41.490;22.098;2023-04-08T15:16:52;14.29;55.10
70826;SHT31;58446;41.490;22.098;2023-04-08T15:19:18;14.17;55.25
70826;SHT31;58446;41.490;22.098;2023-04-08T15:21:44;14.08;55.42
70826;SHT31;58446;41.490;22.098;2023-04-08T15:24:10;14.08;55.54
70826;SHT31;58446;41.490;22.098;2023-04-08T15:26:35;14.22;55.50
70826;SHT31;58446;41.490;22.098;2023-04-08T15:29:01;14.25;54.69
70826;SHT31;58446;41.490;22.098;2023-04-08T15:31:29;14.27;55.44
70826;SHT31;58446;41.490;22.098;2023-04-08T15:33:54;14.34;55.00
70826;SHT31;58446;41.490;22.098;2023-04-08T15:36:20;14.33;55.03
70826;SHT31;58446;41.490;22.098;2023-04-08T15:38:46;14.37;54.23